Time;durP1;ratioP1;P1;durP2;ratioP2;P2;SDS_P1;SDS_P2;PMS_P1;PMS_P2;Temp;Humidity;BMP_temperature;BMP_pressure;BME280_temperature;BME280_humidity;BME280_pressure;Samples;Min_cycle;Max_cycle;Signal;HPM_P1;HPM_P2
2021/07/25 00:02:03;;;;;;;8.85;5.22;;;;;;;19.98;53.98;100160.25;5070314;28;20029;-23
2021/07/25 00:04:31;;;;;;;9.43;5.15;;;;;;;19.43;55.67;100138.53;5069966;28;20024;-22
2021/07/25 00:06:57;;;;;;;11.60;5.20;;;;;;;19.38;56.12;100149.38;5069950;28;20029;-23
2021/07/25 00:09:22;;;;;;;11.18;5.55;;;;;;;19.11;56.62;100136.22;5070078;28;20054;-22
2021/07/25 00:11:48;;;;;;;13.05;4.95;;;;;;;19.36;56.49;100149.66;5051941;28;20028;-23
2021/07/25 00:14:15;;;;;;;13.07;5.38;;;;;;;19.50;56.29;100166.09;5069740;28;20029;-22
2021/07/25 00:16:40;;;;;;;12.43;5.40;;;;;;;19.86;55.27;100160.59;5051417;28;20579;-23
2021/07/25 00:19:09;;;;;;;10.77;5.32;;;;;;;19.64;56.11;100155.50;5069882;28;20040;-23
2021/07/25 00:21:35;;;;;;;10.23;5.40;;;;;;;19.40;56.82;100149.91;5069709;28;20488;-22
2021/07/25 00:24:01;;;;;;;11.48;4.85;;;;;;;19.65;55.83;100157.91;5069688;28;20044;-23
2021/07/25 00:26:33;;;;;;;13.13;5.60;;;;;;;19.94;54.61;100148.34;5069573;28;20032;-23
2021/07/25 00:28:58;;;;;;;8.05;5.28;;;;;;;19.66;56.20;100156.84;5069557;28;20480;-24
2021/07/25 00:31:24;;;;;;;9.93;5.28;;;;;;;19.43;56.60;100160.16;5068856;28;20028;-23
2021/07/25 00:33:50;;;;;;;21.30;5.65;;;;;;;19.21;56.81;100155.13;5069452;28;20033;-23
2021/07/25 00:36:15;;;;;;;38.85;23.08;;;;;;;19.43;56.23;100170.97;5051897;28;20488;-23
2021/07/25 00:38:41;;;;;;;12.98;5.68;;;;;;;19.61;55.37;100158.75;5069257;28;20028;-23
2021/07/25 00:41:09;;;;;;;11.13;5.32;;;;;;;20.06;53.74;100156.94;5069374;28;20021;-23
2021/07/25 00:43:35;;;;;;;8.75;5.47;;;;;;;19.97;54.21;100172.16;5052098;28;20064;-23
2021/07/25 00:46:00;;;;;;;9.00;5.38;;;;;;;19.26;56.34;100165.91;5069155;28;20035;-23
2021/07/25 00:48:26;;;;;;;9.50;4.80;;;;;;;19.40;55.94;100166.16;5034736;28;20055;-23
2021/07/25 00:50:52;;;;;;;17.83;7.25;;;;;;;19.70;54.75;100167.13;5034588;28;20060;-23
2021/07/25 00:53:18;;;;;;;18.00;9.43;;;;;;;19.27;55.81;100162.13;5068754;28;20116;-23
2021/07/25 00:55:43;;;;;;;14.98;8.35;;;;;;;19.17;56.28;100160.25;5069083;28;20040;-23
2021/07/25 00:58:09;;;;;;;20.15;9.75;;;;;;;19.82;54.73;100157.63;5050949;28;20036;-23
2021/07/25 01:00:35;;;;;;;22.83;10.48;;;;;;;20.09;53.46;100147.47;5068798;28;20032;-23
2021/07/25 01:03:21;;;;;;;21.25;10.88;;;;;;;20.57;52.09;100167.44;5069312;28;20496;-23
2021/07/25 01:06:01;;;;;;;21.80;11.85;;;;;;;20.63;51.31;100170.94;5068643;28;20031;-23
2021/07/25 01:08:47;;;;;;;25.92;13.82;;;;;;;20.76;50.72;100172.19;5069117;28;20036;-23
2021/07/25 01:11:13;;;;;;;21.30;11.80;;;;;;;20.05;53.45;100161.56;5069202;28;20032;-23
2021/07/25 01:13:44;;;;;;;23.60;11.43;;;;;;;20.33;52.08;100150.28;5068749;28;20115;-24
2021/07/25 01:16:09;;;;;;;16.58;9.07;;;;;;;20.32;52.75;100157.59;5051086;28;20036;-23
2021/07/25 01:18:45;;;;;;;20.70;8.65;;;;;;;19.51;54.74;100165.00;5050748;28;20020;-23
2021/07/25 01:21:13;;;;;;;17.20;9.50;;;;;;;18.92;56.77;100144.06;5050719;28;20041;-23
2021/07/25 01:23:38;;;;;;;19.40;9.98;;;;;;;18.82;57.27;100156.53;5068651;28;20395;-23
2021/07/25 01:26:04;;;;;;;15.35;8.18;;;;;;;18.55;58.36;100145.13;5068382;28;20546;-23
2021/07/25 01:28:32;;;;;;;17.38;8.65;;;;;;;18.82;57.86;100161.91;5050338;28;20035;-23
2021/07/25 01:30:58;;;;;;;;;;;;;;;18.47;58.75;100168.91;5034836;28;20123;-24
2021/07/25 01:33:28;;;;;;;16.98;8.73;;;;;;;19.17;55.96;100172.97;5068313;28;19999;-23
2021/07/25 01:35:56;;;;;;;51.88;27.60;;;;;;;18.30;58.07;100154.03;5033943;28;20031;-23
2021/07/25 01:38:23;;;;;;;19.45;10.13;;;;;;;17.77;60.60;100173.00;5034007;28;20025;-23
2021/07/25 01:41:02;;;;;;;16.85;8.05;;;;;;;17.96;60.33;100176.91;5049993;28;20048;-22
2021/07/25 01:43:28;;;;;;;23.17;7.07;;;;;;;17.83;60.86;100172.00;5067725;28;20029;-23
2021/07/25 01:45:54;;;;;;;11.73;6.43;;;;;;;17.91;60.72;100174.19;5050404;28;20092;-23
2021/07/25 01:48:19;;;;;;;10.63;6.55;;;;;;;18.18;59.81;100171.28;5067906;28;20032;-23
2021/07/25 01:50:45;;;;;;;11.10;7.10;;;;;;;18.76;57.94;100195.41;5067619;28;20123;-23
2021/07/25 01:53:10;;;;;;;11.35;6.45;;;;;;;18.88;57.38;100187.06;5068324;28;20849;-23
2021/07/25 01:55:35;;;;;;;13.93;6.63;;;;;;;18.82;57.44;100188.94;5067742;28;20088;-23
2021/07/25 01:58:01;;;;;;;9.07;5.80;;;;;;;18.65;58.35;100193.75;5068083;28;20024;-23
2021/07/25 02:00:26;;;;;;;10.95;6.45;;;;;;;18.85;57.88;100199.19;5067747;28;20469;-23
2021/07/25 02:02:52;;;;;;;10.38;5.85;;;;;;;18.53;58.78;100207.53;5049878;28;20025;-23
2021/07/25 02:05:17;;;;;;;9.55;5.78;;;;;;;18.40;59.12;100197.25;5067851;28;20043;-23
2021/07/25 02:07:43;;;;;;;6.68;5.72;;;;;;;18.35;59.10;100175.63;5067732;28;20031;-23
2021/07/25 02:10:09;;;;;;;9.50;6.18;;;;;;;18.53;58.78;100183.25;5067562;28;20036;-23
2021/07/25 02:12:34;;;;;;;11.00;6.32;;;;;;;18.11;59.67;100191.53;5067245;28;20800;-23
2021/07/25 02:15:00;;;;;;;12.82;7.60;;;;;;;17.99;59.94;100181.75;5067581;28;20158;-23
2021/07/25 02:17:25;;;;;;;16.67;9.13;;;;;;;17.82;60.64;100191.94;5067374;28;20028;-23
2021/07/25 02:19:51;;;;;;;23.55;12.57;;;;;;;17.80;60.33;100196.78;5049761;28;20399;-23
2021/07/25 02:22:16;;;;;;;34.80;19.27;;;;;;;18.30;59.06;100198.03;5049682;28;20032;-23
2021/07/25 02:24:42;;;;;;;45.65;21.73;;;;;;;18.17;59.36;100201.25;5067341;28;20548;-23
2021/07/25 02:27:08;;;;;;;33.13;18.33;;;;;;;17.91;60.40;100193.06;5067501;28;20028;-23
2021/07/25 02:29:33;;;;;;;25.17;14.75;;;;;;;17.55;61.66;100198.28;5067435;28;20610;-23
2021/07/25 02:31:59;;;;;;;19.77;10.60;;;;;;;17.68;61.04;100191.59;5049219;28;20040;-23
2021/07/25 02:34:24;;;;;;;32.05;16.42;;;;;;;17.53;61.83;100194.22;5066922;28;20040;-23
2021/07/25 02:36:50;;;;;;;27.08;15.25;;;;;;;17.17;62.56;100181.34;5067358;28;20024;-23
2021/07/25 02:39:15;;;;;;;27.08;16.85;;;;;;;17.25;62.35;100188.94;5067361;28;20064;-23
2021/07/25 02:41:40;;;;;;;24.88;13.55;;;;;;;17.05;63.05;100204.97;5067061;28;20028;-23
2021/07/25 02:44:06;;;;;;;21.38;11.88;;;;;;;17.11;63.44;100211.22;5067138;28;20036;-23
2021/07/25 02:46:33;;;;;;;18.27;10.57;;;;;;;16.94;63.63;100208.66;5066957;28;20027;-23
2021/07/25 02:48:58;;;;;;;17.00;10.73;;;;;;;17.00;63.01;100210.31;5066958;28;20503;-23
2021/07/25 02:51:24;;;;;;;13.05;7.72;;;;;;;17.13;62.85;100209.88;5066859;28;20052;-23
2021/07/25 02:53:49;;;;;;;10.35;6.55;;;;;;;17.43;61.57;100200.38;5066981;28;20039;-23
2021/07/25 02:56:15;;;;;;;12.23;6.07;;;;;;;17.93;60.19;100204.41;5067211;28;20036;-23
2021/07/25 02:58:40;;;;;;;11.73;6.45;;;;;;;17.50;60.96;100187.47;5049067;28;20814;-23
2021/07/25 03:01:13;;;;;;;16.90;11.18;;;;;;;17.71;60.67;100198.34;5067099;28;20047;-23
2021/07/25 03:03:38;;;;;;;57.63;30.50;;;;;;;17.58;61.16;100192.34;5067203;28;20063;-22
2021/07/25 03:06:04;;;;;;;54.17;27.08;;;;;;;18.22;59.35;100207.44;5048950;28;20064;-23
2021/07/25 03:08:29;;;;;;;46.28;23.63;;;;;;;17.89;60.46;100192.53;5067030;28;20024;-23
2021/07/25 03:10:55;;;;;;;41.60;23.77;;;;;;;17.42;62.22;100194.16;5066905;28;20029;-23
2021/07/25 03:13:20;;;;;;;42.47;20.45;;;;;;;17.19;63.31;100194.56;5067147;28;20037;-24
2021/07/25 03:15:46;;;;;;;31.55;16.65;;;;;;;17.17;63.46;100194.81;5066969;28;20040;-23
2021/07/25 03:18:11;;;;;;;23.30;13.13;;;;;;;17.34;63.01;100207.31;5066705;28;20028;-23
2021/07/25 03:20:37;;;;;;;78.68;40.13;;;;;;;17.46;62.80;100205.22;5066512;28;20378;-23
2021/07/25 03:23:02;;;;;;;40.25;24.10;;;;;;;17.74;61.75;100189.75;5066751;28;20028;-23
2021/07/25 03:25:28;;;;;;;45.65;26.13;;;;;;;17.23;63.49;100172.22;5066617;28;20029;-23
2021/07/25 03:27:53;;;;;;;52.42;29.33;;;;;;;17.68;62.18;100192.41;5067099;28;20056;-23
2021/07/25 03:30:19;;;;;;;23.63;13.30;;;;;;;17.59;62.03;100188.59;5067082;28;20546;-23
2021/07/25 03:32:44;;;;;;;47.67;23.92;;;;;;;17.78;61.49;100185.44;5066801;28;20034;-22
2021/07/25 03:35:10;;;;;;;92.97;53.17;;;;;;;18.00;60.89;100188.78;5066613;28;20032;-24
2021/07/25 03:37:40;;;;;;;101.55;59.25;;;;;;;17.88;61.39;100185.50;5066485;28;20473;-23
2021/07/25 03:40:06;;;;;;;89.55;50.75;;;;;;;17.30;63.46;100181.97;5066746;28;20064;-23
2021/07/25 03:42:32;;;;;;;77.45;41.65;;;;;;;17.59;62.81;100193.16;5066523;28;20082;-23
2021/07/25 03:44:57;;;;;;;54.78;32.22;;;;;;;17.59;62.69;100196.69;5066395;28;20040;-23
2021/07/25 03:47:23;;;;;;;64.28;39.45;;;;;;;17.56;62.55;100196.41;5066530;28;20024;-23
2021/07/25 03:49:48;;;;;;;67.45;45.67;;;;;;;17.34;63.15;100196.53;5066566;28;20643;-23
2021/07/25 03:52:13;;;;;;;17.90;12.60;;;;;;;16.80;65.24;100203.66;5066495;28;20106;-23
2021/07/25 03:54:42;;;;;;;26.73;17.98;;;;;;;16.64;65.60;100199.22;5048131;28;20040;-22
2021/07/25 03:57:08;;;;;;;43.33;26.38;;;;;;;16.25;66.40;100164.41;5066526;28;20024;-23
2021/07/25 03:59:33;;;;;;;10.27;7.63;;;;;;;16.39;67.01;100192.53;5066311;28;20025;-22
2021/07/25 04:01:59;;;;;;;20.33;11.75;;;;;;;16.79;66.04;100191.25;5066866;28;20475;-23
2021/07/25 04:04:24;;;;;;;38.00;20.25;;;;;;;17.41;64.26;100197.13;5066340;28;20038;-22
2021/07/25 04:06:50;;;;;;;14.75;9.57;;;;;;;17.43;63.32;100200.38;5069796;28;20036;-23
2021/07/25 04:09:15;;;;;;;26.25;15.90;;;;;;;17.55;63.25;100211.78;5070033;28;20036;-23
2021/07/25 04:11:41;;;;;;;41.22;24.08;;;;;;;18.03;61.75;100204.44;5070290;28;20041;-23
2021/07/25 04:14:06;;;;;;;125.63;72.15;;;;;;;18.18;61.54;100210.97;5069942;28;20059;-23
2021/07/25 04:16:32;;;;;;;55.13;29.05;;;;;;;17.47;63.78;100212.25;5069542;28;20036;-23
2021/07/25 04:18:57;;;;;;;42.10;24.05;;;;;;;17.42;64.27;100209.53;5070028;28;20458;-23
2021/07/25 04:21:23;;;;;;;61.03;33.38;;;;;;;17.46;64.07;100195.25;5069659;28;20032;-23
2021/07/25 04:23:48;;;;;;;32.80;19.00;;;;;;;17.37;64.94;100217.59;5069834;28;20628;-23
2021/07/25 04:26:14;;;;;;;67.47;34.97;;;;;;;17.32;65.37;100215.66;5069724;28;20032;-23
2021/07/25 04:28:39;;;;;;;254.40;128.00;;;;;;;17.67;64.69;100223.16;5069417;28;20526;-23
2021/07/25 04:31:05;;;;;;;290.42;138.52;;;;;;;17.51;65.32;100213.38;5051957;28;20082;-22
2021/07/25 04:33:32;;;;;;;136.70;72.40;;;;;;;17.83;64.77;100217.84;5069546;28;20419;-22
2021/07/25 04:35:58;;;;;;;552.45;290.77;;;;;;;18.06;64.64;100214.72;5051691;28;20396;-23
2021/07/25 04:38:24;;;;;;;197.88;93.60;;;;;;;18.34;64.03;100233.41;5069203;28;20039;-23
2021/07/25 04:41:00;;;;;;;226.95;115.68;;;;;;;18.02;65.34;100228.97;5069625;28;20083;-23
2021/07/25 04:43:30;;;;;;;281.27;145.98;;;;;;;18.38;64.80;100227.22;5052584;28;20481;-23
2021/07/25 04:46:27;;;;;;;269.23;132.05;;;;;;;18.66;64.08;100238.59;5035195;28;20039;-23
2021/07/25 04:49:07;;;;;;;332.05;153.23;;;;;;;18.59;64.12;100222.69;5069167;28;20043;-24
2021/07/25 04:51:36;;;;;;;333.42;147.40;;;;;;;18.75;63.96;100236.97;5031782;28;20528;-23
2021/07/25 04:54:05;;;;;;;68.97;37.85;;;;;;;18.74;63.16;100235.38;5031592;28;20386;-23
2021/07/25 04:56:31;;;;;;;257.98;124.43;;;;;;;18.85;63.25;100247.03;5048831;28;20037;-23
2021/07/25 04:59:03;;;;;;;230.80;111.93;;;;;;;19.03;62.29;100248.38;5031017;28;20496;-23
2021/07/25 05:01:32;;;;;;;253.13;111.78;;;;;;;18.76;63.04;100224.31;5049173;28;20040;-23
2021/07/25 05:04:01;;;;;;;171.20;79.28;;;;;;;19.34;61.55;100248.38;5048927;28;20021;-23
2021/07/25 05:06:27;;;;;;;100.72;50.92;;;;;;;19.51;60.57;100232.63;5047735;28;20536;-23
2021/07/25 05:08:52;;;;;;;155.98;74.63;;;;;;;19.59;60.07;100239.38;5031319;28;20025;-23
2021/07/25 05:11:19;;;;;;;121.28;56.95;;;;;;;19.72;59.67;100254.28;5047751;28;20031;-23
2021/07/25 05:13:49;;;;;;;136.13;67.25;;;;;;;19.67;60.22;100247.72;5048698;28;20029;-23
2021/07/25 05:16:30;;;;;;;70.90;38.90;;;;;;;19.75;59.87;100242.88;5048063;28;20548;-22
2021/07/25 05:19:15;;;;;;;107.88;56.58;;;;;;;20.02;58.91;100256.88;5047043;28;20568;-22
2021/07/25 05:21:42;;;;;;;22.70;14.90;;;;;;;19.75;59.95;100253.72;5047591;28;20029;-23
2021/07/25 05:24:08;;;;;;;74.30;39.42;;;;;;;19.92;59.82;100262.31;5047315;28;20040;-23
2021/07/25 05:26:35;;;;;;;27.13;17.02;;;;;;;20.17;59.42;100244.34;5030658;28;20033;-22
2021/07/25 05:29:00;;;;;;;53.63;28.67;;;;;;;20.38;59.05;100264.81;5047166;28;20028;-23
2021/07/25 05:31:33;;;;;;;46.78;25.40;;;;;;;20.47;58.14;100249.59;5047468;28;20045;-23
2021/07/25 05:33:59;;;;;;;54.67;28.63;;;;;;;20.57;58.18;100270.38;5048326;28;20036;-23
2021/07/25 05:36:25;;;;;;;52.90;27.83;;;;;;;20.42;58.64;100262.34;5046714;28;20036;-23
2021/07/25 05:38:51;;;;;;;78.85;42.53;;;;;;;20.59;58.88;100268.22;5048408;28;20020;-22
2021/07/25 05:41:16;;;;;;;26.08;14.65;;;;;;;21.00;57.32;100272.56;5048087;28;20555;-23
2021/07/25 05:43:42;;;;;;;21.88;13.40;;;;;;;20.85;57.95;100271.59;5048074;28;20448;-22
2021/07/25 05:46:07;;;;;;;31.80;17.92;;;;;;;21.26;57.46;100276.69;5048325;28;20382;-23
2021/07/25 05:48:33;;;;;;;60.08;33.63;;;;;;;21.50;56.92;100284.09;5047811;28;20021;-22
2021/07/25 05:51:02;;;;;;;35.40;18.65;;;;;;;21.40;56.70;100265.16;5062501;28;20052;-22
2021/07/25 05:53:28;;;;;;;12.90;10.48;;;;;;;21.36;57.09;100264.13;5067953;28;20533;-23
2021/07/25 05:55:53;;;;;;;142.90;69.70;;;;;;;21.44;56.38;100275.19;5067819;28;20086;-22
2021/07/25 05:58:19;;;;;;;21.98;13.65;;;;;;;21.40;56.45;100276.03;5049798;28;20028;-23
2021/07/25 06:00:44;;;;;;;15.40;10.82;;;;;;;21.43;57.03;100275.47;5067786;28;20048;-23
2021/07/25 06:03:10;;;;;;;16.58;10.98;;;;;;;21.39;56.99;100274.38;5067950;28;20385;-22
2021/07/25 06:05:35;;;;;;;15.65;9.90;;;;;;;21.41;57.38;100277.63;5049867;28;20033;-22
2021/07/25 06:08:03;;;;;;;26.90;16.17;;;;;;;21.69;56.76;100277.94;5068044;28;20119;-22
2021/07/25 06:10:30;;;;;;;18.15;10.82;;;;;;;21.92;55.80;100265.44;5049954;28;20029;-22
2021/07/25 06:12:56;;;;;;;19.83;13.25;;;;;;;21.74;55.90;100283.28;5049948;28;20028;-22
2021/07/25 06:15:22;;;;;;;17.15;11.73;;;;;;;21.62;56.15;100273.66;5067500;28;20032;-22
2021/07/25 06:17:48;;;;;;;30.10;16.65;;;;;;;21.88;55.88;100289.66;5067758;28;20849;-22
2021/07/25 06:20:13;;;;;;;24.88;14.43;;;;;;;22.12;55.10;100275.25;5067760;28;20033;-22
2021/07/25 06:22:40;;;;;;;26.33;17.50;;;;;;;22.38;54.66;100289.38;5067077;28;20043;-22
2021/07/25 06:25:06;;;;;;;21.63;14.20;;;;;;;22.70;52.50;100282.38;5033106;28;20408;-22
2021/07/25 06:27:32;;;;;;;19.92;12.52;;;;;;;22.79;52.00;100288.78;5066907;28;20125;-22
2021/07/25 06:29:57;;;;;;;16.88;11.00;;;;;;;22.90;50.21;100279.34;5067434;28;20036;-23
2021/07/25 06:32:23;;;;;;;14.93;8.85;;;;;;;23.10;51.31;100293.78;5067106;28;20118;-22
2021/07/25 06:34:48;;;;;;;19.83;10.93;;;;;;;22.83;51.28;100285.16;5067233;28;20039;-23
2021/07/25 06:37:14;;;;;;;45.22;24.08;;;;;;;22.71;51.88;100276.66;5067165;28;20098;-22
2021/07/25 06:39:39;;;;;;;51.60;27.33;;;;;;;22.87;51.23;100275.31;5067339;28;20040;-22
2021/07/25 06:42:05;;;;;;;26.05;14.80;;;;;;;23.10;50.09;100280.97;5067068;28;20035;-23
2021/07/25 06:44:30;;;;;;;26.38;14.45;;;;;;;23.31;50.05;100286.06;5066909;28;20035;-22
2021/07/25 06:46:56;;;;;;;8.95;6.07;;;;;;;23.39;49.72;100285.38;5067255;28;20035;-23
2021/07/25 06:49:21;;;;;;;17.15;8.93;;;;;;;23.77;49.01;100285.28;5066852;28;20037;-22
2021/07/25 06:51:47;;;;;;;18.25;7.43;;;;;;;23.85;47.83;100287.28;5067375;28;20709;-23
2021/07/25 06:54:14;;;;;;;28.75;15.10;;;;;;;23.57;49.04;100287.22;5067094;28;20039;-22
2021/07/25 06:56:39;;;;;;;17.52;10.07;;;;;;;23.81;48.79;100280.81;5066738;28;20492;-22
2021/07/25 06:59:04;;;;;;;8.13;5.65;;;;;;;24.04;48.56;100290.69;5067264;28;20504;-22
2021/07/25 07:01:30;;;;;;;42.35;30.45;;;;;;;24.40;46.65;100281.78;5067051;28;20032;-22
2021/07/25 07:03:55;;;;;;;28.60;20.20;;;;;;;24.54;46.60;100280.94;5066985;28;20036;-22
2021/07/25 07:06:21;;;;;;;29.42;20.92;;;;;;;24.77;47.10;100274.44;5066931;28;20405;-22
2021/07/25 07:08:46;;;;;;;12.93;6.22;;;;;;;24.69;46.49;100272.44;5066849;28;20028;-22
2021/07/25 07:11:12;;;;;;;15.68;11.65;;;;;;;24.92;45.73;100275.19;5059736;28;20110;-22
2021/07/25 07:13:37;;;;;;;35.78;23.80;;;;;;;25.08;44.75;100268.22;5046981;28;20044;-22
2021/07/25 07:16:03;;;;;;;10.00;7.20;;;;;;;24.80;45.16;100268.34;5047040;28;20033;-22
2021/07/25 07:18:28;;;;;;;21.85;11.23;;;;;;;24.80;45.86;100275.72;5046657;28;20032;-22
2021/07/25 07:20:54;;;;;;;11.15;5.47;;;;;;;25.07;45.57;100274.81;5047225;28;20037;-22
2021/07/25 07:23:24;;;;;;;7.93;5.45;;;;;;;24.96;44.49;100265.25;5046660;28;20416;-22
2021/07/25 07:25:51;;;;;;;10.50;5.18;;;;;;;24.89;44.37;100256.69;5046830;28;20385;-22
2021/07/25 07:28:17;;;;;;;8.98;5.55;;;;;;;25.10;44.58;100259.72;5046852;28;20036;-22
2021/07/25 07:30:43;;;;;;;7.97;5.78;;;;;;;25.14;44.01;100266.97;5028820;28;20032;-22
2021/07/25 07:33:13;;;;;;;74.82;48.05;;;;;;;25.04;43.88;100257.13;5028958;28;20033;-23
2021/07/25 07:35:39;;;;;;;30.02;18.98;;;;;;;25.35;43.58;100255.56;5046754;28;20552;-22
2021/07/25 07:38:05;;;;;;;11.98;4.72;;;;;;;25.58;42.63;100259.88;5046481;28;20071;-22
2021/07/25 07:40:30;;;;;;;74.88;55.88;;;;;;;25.76;41.65;100270.84;5048322;28;20064;-22
2021/07/25 07:42:56;;;;;;;169.13;124.38;;;;;;;25.90;42.39;100266.09;5050548;28;20405;-22
2021/07/25 07:45:21;;;;;;;13.15;7.78;;;;;;;26.36;42.76;100267.50;5050607;28;20401;-22
2021/07/25 07:47:48;;;;;;;24.45;19.65;;;;;;;26.12;41.94;100273.38;5050544;28;20037;-22
2021/07/25 07:50:13;;;;;;;117.55;80.22;;;;;;;26.25;40.53;100277.09;5050142;28;20052;-22
2021/07/25 07:52:39;;;;;;;26.50;21.45;;;;;;;26.09;40.24;100278.69;5050328;28;20090;-22
2021/07/25 07:55:04;;;;;;;8.15;4.30;;;;;;;26.27;38.64;100261.19;5050848;28;20041;-23
2021/07/25 07:57:31;;;;;;;9.05;4.38;;;;;;;26.22;40.65;100266.81;5050226;28;20570;-22
2021/07/25 07:59:56;;;;;;;27.08;15.88;;;;;;;26.54;39.27;100278.41;5050123;28;20052;-22
2021/07/25 08:02:22;;;;;;;10.20;6.03;;;;;;;26.89;37.30;100268.31;5050196;28;20090;-22
2021/07/25 08:04:47;;;;;;;12.60;8.63;;;;;;;26.92;38.24;100278.59;5059021;28;20416;-22
2021/07/25 08:07:13;;;;;;;11.02;6.40;;;;;;;26.90;37.86;100269.13;5058556;28;20037;-22
2021/07/25 08:09:38;;;;;;;16.65;8.50;;;;;;;27.27;38.04;100288.72;5059677;28;20036;-22
2021/07/25 08:12:06;;;;;;;12.77;8.95;;;;;;;27.44;34.51;100277.72;5059672;28;20400;-22
2021/07/25 08:14:31;;;;;;;12.60;7.07;;;;;;;27.85;34.69;100270.81;5058145;28;20029;-22
2021/07/25 08:16:57;;;;;;;9.70;5.32;;;;;;;27.71;34.02;100281.19;5058183;28;20044;-22
2021/07/25 08:19:22;;;;;;;10.68;5.38;;;;;;;27.66;34.14;100268.44;5058752;28;20024;-22
2021/07/25 08:21:48;;;;;;;9.85;5.15;;;;;;;27.77;34.32;100274.38;5059996;28;20163;-23
2021/07/25 08:24:13;;;;;;;10.65;5.88;;;;;;;27.80;33.38;100270.97;5051601;28;20028;-22
2021/07/25 08:26:39;;;;;;;10.43;5.68;;;;;;;27.75;33.80;100276.66;5032035;28;20043;-22
2021/07/25 08:29:04;;;;;;;10.85;5.95;;;;;;;27.73;33.91;100273.44;5049893;28;20039;-23
2021/07/25 08:31:30;;;;;;;12.80;5.53;;;;;;;27.79;33.98;100277.59;5049562;28;20394;-23
2021/07/25 08:33:55;;;;;;;12.30;6.97;;;;;;;27.92;32.25;100273.84;5049813;28;20487;-22
2021/07/25 08:36:22;;;;;;;9.80;5.50;;;;;;;28.56;33.83;100261.03;5031889;28;20473;-22
2021/07/25 08:38:48;;;;;;;9.32;6.93;;;;;;;28.25;33.37;100260.25;5049202;28;20035;-23
2021/07/25 08:41:15;;;;;;;10.43;6.55;;;;;;;28.24;32.55;100272.38;5049646;28;20029;-22
2021/07/25 08:43:42;;;;;;;9.82;6.25;;;;;;;28.10;32.20;100263.59;5049464;28;20412;-22
2021/07/25 08:46:18;;;;;;;31.25;17.85;;;;;;;28.09;32.20;100272.13;5049354;28;20402;-23
2021/07/25 08:48:48;;;;;;;31.00;16.60;;;;;;;28.49;32.63;100260.75;5049328;28;20481;-22
2021/07/25 08:51:16;;;;;;;9.27;5.30;;;;;;;28.76;32.69;100251.16;5048346;28;20056;-22
2021/07/25 08:54:03;;;;;;;11.68;6.13;;;;;;;28.91;32.66;100260.72;5049349;28;20029;-22
2021/07/25 08:56:29;;;;;;;8.53;5.53;;;;;;;29.17;31.83;100253.03;5048970;28;20037;-23
2021/07/25 08:59:00;;;;;;;32.27;19.63;;;;;;;28.94;32.24;100249.84;5049165;28;20033;-23
2021/07/25 09:01:35;;;;;;;9.95;4.80;;;;;;;28.57;32.66;100229.72;5049057;28;20071;-22
2021/07/25 09:04:02;;;;;;;10.20;4.40;;;;;;;28.55;33.27;100204.56;5049475;28;20064;-22
2021/07/25 09:06:50;;;;;;;21.10;8.45;;;;;;;28.98;33.40;100219.78;5048946;28;20033;-22
2021/07/25 09:09:19;;;;;;;11.75;6.95;;;;;;;28.70;33.45;100234.09;5033770;28;20056;-22
2021/07/25 09:11:48;;;;;;;9.73;4.00;;;;;;;29.24;31.77;100236.03;5049096;28;20033;-22
2021/07/25 09:14:13;;;;;;;8.70;3.88;;;;;;;29.70;31.94;100241.44;5048763;28;20112;-22
2021/07/25 09:16:39;;;;;;;4.95;3.33;;;;;;;29.65;31.80;100246.00;5048645;28;20041;-22
2021/07/25 09:19:04;;;;;;;10.15;3.75;;;;;;;29.83;31.43;100240.28;5049206;28;20877;-22
2021/07/25 09:21:59;;;;;;;5.63;3.35;;;;;;;30.25;30.42;100246.31;5048676;28;20036;-22
2021/07/25 09:24:29;;;;;;;8.10;3.35;;;;;;;30.69;29.44;100245.63;5030774;28;20047;-22
2021/07/25 09:27:02;;;;;;;8.02;3.83;;;;;;;30.52;28.91;100241.19;5057279;28;20032;-22
2021/07/25 09:29:37;;;;;;;7.63;3.90;;;;;;;30.48;30.36;100228.50;5058114;28;20051;-22
2021/07/25 09:32:18;;;;;;;6.85;3.88;;;;;;;30.08;29.25;100243.00;5058134;28;20713;-22
2021/07/25 09:34:50;;;;;;;7.63;3.13;;;;;;;30.33;28.71;100238.31;5039603;28;20500;-22
2021/07/25 09:37:20;;;;;;;6.22;3.53;;;;;;;30.64;28.75;100235.66;5051593;28;20075;-22
2021/07/25 09:39:47;;;;;;;9.50;3.60;;;;;;;30.46;27.83;100247.31;5056504;28;20032;-22
2021/07/25 09:42:13;;;;;;;7.13;3.80;;;;;;;29.83;30.13;100229.28;5056257;28;20500;-22
2021/07/25 09:44:47;;;;;;;8.75;3.60;;;;;;;30.20;28.08;100237.50;5045356;28;20115;-22
2021/07/25 09:47:33;;;;;;;10.43;3.80;;;;;;;31.00;28.90;100235.88;5052964;28;20515;-22
2021/07/25 09:49:59;;;;;;;6.78;3.28;;;;;;;30.78;29.08;100226.19;5063632;28;20837;-22
2021/07/25 09:52:37;;;;;;;7.82;3.85;;;;;;;30.38;29.85;100230.63;5052765;28;20137;-22
2021/07/25 09:55:04;;;;;;;6.43;3.30;;;;;;;30.41;30.46;100221.66;5057458;28;20425;-22
2021/07/25 09:57:30;;;;;;;7.65;3.20;;;;;;;30.74;30.39;100223.34;5061767;28;20021;-22
2021/07/25 09:59:59;;;;;;;7.85;3.70;;;;;;;30.92;28.30;100203.78;5050842;28;20041;-22
2021/07/25 10:02:45;;;;;;;7.82;3.20;;;;;;;31.09;27.82;100216.41;5043653;28;20056;-22
2021/07/25 10:05:22;;;;;;;6.63;3.47;;;;;;;31.49;26.72;100201.69;5058976;28;20036;-22
2021/07/25 10:07:48;;;;;;;7.22;3.28;;;;;;;31.41;27.29;100211.72;5051518;28;20035;-22
2021/07/25 10:10:15;;;;;;;7.22;3.47;;;;;;;30.68;28.19;100197.22;5052805;28;20036;-22
2021/07/25 10:12:42;;;;;;;9.68;4.38;;;;;;;31.26;27.40;100204.25;5056411;28;20057;-22
2021/07/25 10:15:09;;;;;;;4.78;3.22;;;;;;;32.00;26.93;100210.78;5056148;28;20035;-22
2021/07/25 10:17:36;;;;;;;6.13;3.72;;;;;;;32.15;25.32;100198.09;5054896;28;20060;-22
2021/07/25 10:20:03;;;;;;;7.03;3.60;;;;;;;32.17;25.69;100203.25;5055236;28;20025;-22
2021/07/25 10:22:30;;;;;;;6.97;3.30;;;;;;;31.96;26.08;100204.34;5038778;28;20025;-22
2021/07/25 10:24:57;;;;;;;6.40;4.00;;;;;;;31.73;27.49;100195.16;5058214;28;20039;-22
2021/07/25 10:27:22;;;;;;;8.60;4.00;;;;;;;31.77;28.21;100174.78;5057851;28;20028;-22
2021/07/25 10:29:48;;;;;;;7.95;3.60;;;;;;;31.54;27.66;100182.91;5039362;28;20033;-22
2021/07/25 10:32:13;;;;;;;6.95;4.10;;;;;;;32.32;27.69;100193.28;5038539;28;20055;-22
2021/07/25 10:34:40;;;;;;;7.78;3.53;;;;;;;32.60;25.75;100182.06;5023397;28;20028;-22
2021/07/25 10:37:05;;;;;;;8.03;5.30;;;;;;;32.82;25.68;100180.50;5038902;28;20078;-22
2021/07/25 10:39:31;;;;;;;7.72;3.42;;;;;;;33.08;23.40;100154.09;5056281;28;20067;-22
2021/07/25 10:42:00;;;;;;;5.63;3.28;;;;;;;32.70;23.25;100164.09;5023307;28;20035;-22
2021/07/25 10:44:26;;;;;;;5.90;3.40;;;;;;;32.64;22.82;100160.84;5056499;28;20032;-22
2021/07/25 10:47:20;;;;;;;8.27;3.63;;;;;;;33.30;24.97;100185.66;5061086;28;20068;-22
2021/07/25 10:49:58;;;;;;;13.55;8.27;;;;;;;33.71;23.88;100189.47;5046831;28;20114;-22
2021/07/25 10:52:24;;;;;;;7.72;4.63;;;;;;;33.46;24.55;100177.22;5029261;28;20420;-22
2021/07/25 10:54:50;;;;;;;8.18;4.13;;;;;;;32.80;24.69;100164.28;5029522;28;20043;-22
2021/07/25 10:57:17;;;;;;;9.65;6.00;;;;;;;32.97;25.02;100168.50;5048605;28;20474;-22
2021/07/25 10:59:46;;;;;;;7.25;3.78;;;;;;;33.03;24.29;100160.72;5046993;28;20036;-22
2021/07/25 11:02:13;;;;;;;7.72;4.63;;;;;;;33.68;24.45;100164.56;5030476;28;20471;-22
2021/07/25 11:04:48;;;;;;;9.90;3.97;;;;;;;34.01;23.92;100159.06;5062484;28;20025;-22
2021/07/25 11:07:22;;;;;;;8.70;3.67;;;;;;;34.12;23.37;100173.03;5054923;28;20033;-22
2021/07/25 11:09:57;;;;;;;8.65;4.38;;;;;;;33.51;23.40;100152.84;5055479;28;20103;-22
2021/07/25 11:12:22;;;;;;;11.77;5.35;;;;;;;33.58;23.58;100147.38;5054716;28;20107;-22
2021/07/25 11:14:57;;;;;;;15.75;9.77;;;;;;;33.66;23.44;100145.56;5032588;28;20116;-22
2021/07/25 11:17:44;;;;;;;10.30;4.97;;;;;;;33.88;23.38;100149.41;5050864;28;20115;-22